Aeroporto :
LOGIN :

Iscrizione | Disclaimer

   EN    FR    IT 

 










Sommario :    VFR   VFR Marginale   IFR   IFR Intensivo   IFR Molto Intensivo
Visibilità : 
Base nubi : 
>= 8 km
>= 3000ft
5 / 8 km
1000 / 3000 ft
1500m / 5 km
500 / 1000 ft
800 / 1500m
200 / 500 ft
< 800m
< 200 ft
Simboli :   Temporali  Nebbia  Neve Forte  Precipitazioni Forti  Vento > 20 kt
SIGMETs :   Varie  Temporali  Ghiacco  Turbolenza  Onda orograficha  Ceneri Vulcaniche







- Altitudine del aeroporto : 26 ft


ETNT - Wittmundhaven AB

ULTIMO METAR :
  • 181520Z 22005KT 9999 BKN320 13/04 Q1015 BLU+BLU+

METARs OBSOLETI :
  • 181420Z 22008KT 9999 SCT320 14/03 Q1015 BLU+BLU+
  • 181320Z 22011KT 9999 SCT320 14/02 Q1015 BLU+BLU+

TAF TAF ETNT
Valido dal 18 a 15 ore il 19 a 00 ore UTC


181410Z 1815/1824 21009KT 9999 NSW FEW300
BECMG 1818/1820 22012KT 8000 NSW BKN015 BKN270
TEMPO 1820/1824 22012KT 4000 BR BKN010 BKN270 BY ETGL
Nessun NOTAM noto per questo aeroporto.



MetMap, La meteo Aeronautica in un colpo d'occhio ! - Copyright ORBIFLY Dicembre 2007 - Disclaimer

ORBIFLY MET'MAP TEAM :

Programmazione e sviluppo : Alexandra Zaïnal
Concezione e sviluppo : Baudouin d'Aumeries
Co-Programmazione e sviluppo : Marc-Olivier Méhu
Supporto tecnico e logistico : Manuel Goepfert
Aiuto per la traduzione : Arnaldo La Scala

Contatto : metmap@orbifly.com




FONTI E CREDITI :

   NOAA